sensor_id;sensor_type;location;lat;lon;timestamp;temperature;humidity
25302;DHT22;13243;50.888;4.724;2023-04-25T00:01:27;9.20;99.90
25302;DHT22;13243;50.888;4.724;2023-04-25T00:06:29;9.30;99.90
25302;DHT22;13243;50.888;4.724;2023-04-25T00:11:33;9.30;99.90
25302;DHT22;13243;50.888;4.724;2023-04-25T00:16:35;9.40;99.90
25302;DHT22;13243;50.888;4.724;2023-04-25T00:21:37;9.40;99.90
25302;DHT22;13243;50.888;4.724;2023-04-25T00:26:42;9.40;99.90
25302;DHT22;13243;50.888;4.724;2023-04-25T00:31:43;9.40;99.90
25302;DHT22;13243;50.888;4.724;2023-04-25T00:36:45;9.40;99.90
25302;DHT22;13243;50.888;4.724;2023-04-25T00:41:48;9.40;99.90
25302;DHT22;13243;50.888;4.724;2023-04-25T00:46:50;9.20;99.90
25302;DHT22;13243;50.888;4.724;2023-04-25T00:51:52;9.20;99.90
25302;DHT22;13243;50.888;4.724;2023-04-25T00:56:54;9.10;99.90
25302;DHT22;13243;50.888;4.724;2023-04-25T01:01:56;9.10;99.90
25302;DHT22;13243;50.888;4.724;2023-04-25T01:06:58;9.20;99.90
25302;DHT22;13243;50.888;4.724;2023-04-25T01:12:00;9.10;99.90
25302;DHT22;13243;50.888;4.724;2023-04-25T01:17:02;9.10;99.90
25302;DHT22;13243;50.888;4.724;2023-04-25T01:22:04;9.20;99.90
25302;DHT22;13243;50.888;4.724;2023-04-25T01:27:06;9.20;99.90
25302;DHT22;13243;50.888;4.724;2023-04-25T01:32:09;9.10;99.90
25302;DHT22;13243;50.888;4.724;2023-04-25T01:37:11;9.10;99.90
25302;DHT22;13243;50.888;4.724;2023-04-25T01:42:14;9.10;99.90
25302;DHT22;13243;50.888;4.724;2023-04-25T01:47:16;9.00;99.90
25302;DHT22;13243;50.888;4.724;2023-04-25T01:52:17;9.00;99.90
25302;DHT22;13243;50.888;4.724;2023-04-25T01:57:19;9.00;99.90
25302;DHT22;13243;50.888;4.724;2023-04-25T02:02:21;8.90;99.90
25302;DHT22;13243;50.888;4.724;2023-04-25T02:07:23;8.90;99.90
25302;DHT22;13243;50.888;4.724;2023-04-25T02:12:26;8.90;99.90
25302;DHT22;13243;50.888;4.724;2023-04-25T02:17:29;8.90;99.90
25302;DHT22;13243;50.888;4.724;2023-04-25T02:22:33;8.90;99.90
25302;DHT22;13243;50.888;4.724;2023-04-25T02:27:36;8.90;99.90
25302;DHT22;13243;50.888;4.724;2023-04-25T02:32:39;8.80;99.90
25302;DHT22;13243;50.888;4.724;2023-04-25T02:37:42;8.90;99.90
25302;DHT22;13243;50.888;4.724;2023-04-25T02:42:44;8.80;99.90
25302;DHT22;13243;50.888;4.724;2023-04-25T02:47:47;8.70;99.90
25302;DHT22;13243;50.888;4.724;2023-04-25T02:52:49;8.70;99.90
25302;DHT22;13243;50.888;4.724;2023-04-25T02:57:51;8.80;99.90
25302;DHT22;13243;50.888;4.724;2023-04-25T03:02:53;8.80;99.90
25302;DHT22;13243;50.888;4.724;2023-04-25T03:07:55;8.60;99.90
25302;DHT22;13243;50.888;4.724;2023-04-25T03:12:57;8.60;99.90
25302;DHT22;13243;50.888;4.724;2023-04-25T03:17:59;8.50;99.90
25302;DHT22;13243;50.888;4.724;2023-04-25T03:23:01;8.60;99.90
25302;DHT22;13243;50.888;4.724;2023-04-25T03:28:02;8.50;99.90
25302;DHT22;13243;50.888;4.724;2023-04-25T03:33:04;8.50;99.90
25302;DHT22;13243;50.888;4.724;2023-04-25T03:38:06;8.50;99.90
25302;DHT22;13243;50.888;4.724;2023-04-25T03:43:08;8.50;99.90
25302;DHT22;13243;50.888;4.724;2023-04-25T03:48:10;8.20;99.90
25302;DHT22;13243;50.888;4.724;2023-04-25T03:53:12;8.10;99.90
25302;DHT22;13243;50.888;4.724;2023-04-25T03:58:14;8.20;99.90
25302;DHT22;13243;50.888;4.724;2023-04-25T04:03:16;8.20;99.90
25302;DHT22;13243;50.888;4.724;2023-04-25T04:08:18;8.20;99.90
25302;DHT22;13243;50.888;4.724;2023-04-25T04:13:20;8.00;99.90
25302;DHT22;13243;50.888;4.724;2023-04-25T04:18:22;7.90;99.90
25302;DHT22;13243;50.888;4.724;2023-04-25T04:23:24;8.00;99.90
25302;DHT22;13243;50.888;4.724;2023-04-25T04:28:26;8.10;99.90
25302;DHT22;13243;50.888;4.724;2023-04-25T04:33:28;8.10;99.90
25302;DHT22;13243;50.888;4.724;2023-04-25T04:38:30;8.10;99.90
25302;DHT22;13243;50.888;4.724;2023-04-25T04:43:31;8.00;99.90
25302;DHT22;13243;50.888;4.724;2023-04-25T04:48:35;7.90;99.90
25302;DHT22;13243;50.888;4.724;2023-04-25T04:53:37;8.00;99.90
25302;DHT22;13243;50.888;4.724;2023-04-25T04:58:38;8.00;99.90
25302;DHT22;13243;50.888;4.724;2023-04-25T05:03:40;7.90;99.90
25302;DHT22;13243;50.888;4.724;2023-04-25T05:08:42;8.00;99.90
25302;DHT22;13243;50.888;4.724;2023-04-25T05:13:44;7.90;99.90
25302;DHT22;13243;50.888;4.724;2023-04-25T05:18:47;8.00;99.90
25302;DHT22;13243;50.888;4.724;2023-04-25T05:23:49;8.00;99.90
25302;DHT22;13243;50.888;4.724;2023-04-25T05:28:51;7.90;99.90
25302;DHT22;13243;50.888;4.724;2023-04-25T05:33:53;8.00;99.90
25302;DHT22;13243;50.888;4.724;2023-04-25T05:38:55;8.00;99.90
25302;DHT22;13243;50.888;4.724;2023-04-25T05:43:56;8.00;99.90
25302;DHT22;13243;50.888;4.724;2023-04-25T05:48:59;8.00;99.90
25302;DHT22;13243;50.888;4.724;2023-04-25T05:54:01;8.00;99.90
25302;DHT22;13243;50.888;4.724;2023-04-25T05:59:03;8.10;99.90
25302;DHT22;13243;50.888;4.724;2023-04-25T06:04:04;8.10;99.90
25302;DHT22;13243;50.888;4.724;2023-04-25T06:09:07;8.20;99.90
25302;DHT22;13243;50.888;4.724;2023-04-25T06:14:08;8.10;99.90
25302;DHT22;13243;50.888;4.724;2023-04-25T06:19:10;8.10;99.90
25302;DHT22;13243;50.888;4.724;2023-04-25T06:24:12;8.20;99.90
25302;DHT22;13243;50.888;4.724;2023-04-25T06:29:14;8.30;99.90
25302;DHT22;13243;50.888;4.724;2023-04-25T06:34:16;8.30;99.90
25302;DHT22;13243;50.888;4.724;2023-04-25T06:39:18;8.50;99.90
25302;DHT22;13243;50.888;4.724;2023-04-25T06:44:21;8.40;99.90
25302;DHT22;13243;50.888;4.724;2023-04-25T06:49:25;8.70;99.90
25302;DHT22;13243;50.888;4.724;2023-04-25T06:54:27;8.60;99.90
25302;DHT22;13243;50.888;4.724;2023-04-25T06:59:31;8.60;99.90
25302;DHT22;13243;50.888;4.724;2023-04-25T07:04:34;8.60;99.90
25302;DHT22;13243;50.888;4.724;2023-04-25T07:09:36;8.80;99.90
25302;DHT22;13243;50.888;4.724;2023-04-25T07:14:38;8.80;99.90
25302;DHT22;13243;50.888;4.724;2023-04-25T07:19:40;8.70;99.90
25302;DHT22;13243;50.888;4.724;2023-04-25T07:24:42;8.70;99.90
25302;DHT22;13243;50.888;4.724;2023-04-25T07:29:44;8.90;99.90
25302;DHT22;13243;50.888;4.724;2023-04-25T07:34:46;9.00;99.90
25302;DHT22;13243;50.888;4.724;2023-04-25T07:39:48;9.00;99.90
25302;DHT22;13243;50.888;4.724;2023-04-25T07:44:50;9.10;99.90
25302;DHT22;13243;50.888;4.724;2023-04-25T07:49:53;9.20;99.90
25302;DHT22;13243;50.888;4.724;2023-04-25T07:54:55;9.30;99.90
25302;DHT22;13243;50.888;4.724;2023-04-25T07:59:56;9.50;99.90
25302;DHT22;13243;50.888;4.724;2023-04-25T08:04:58;9.70;99.90
25302;DHT22;13243;50.888;4.724;2023-04-25T08:10:00;9.70;99.90
25302;DHT22;13243;50.888;4.724;2023-04-25T08:15:03;9.60;99.90
25302;DHT22;13243;50.888;4.724;2023-04-25T08:20:06;9.40;99.90
25302;DHT22;13243;50.888;4.724;2023-04-25T08:25:08;9.20;99.90
25302;DHT22;13243;50.888;4.724;2023-04-25T08:30:10;9.10;99.90
25302;DHT22;13243;50.888;4.724;2023-04-25T08:35:12;9.00;99.90
25302;DHT22;13243;50.888;4.724;2023-04-25T08:40:15;9.00;99.90
25302;DHT22;13243;50.888;4.724;2023-04-25T08:45:17;9.00;99.90
25302;DHT22;13243;50.888;4.724;2023-04-25T08:50:19;8.90;99.90
25302;DHT22;13243;50.888;4.724;2023-04-25T08:55:23;9.00;99.90
25302;DHT22;13243;50.888;4.724;2023-04-25T09:00:26;9.30;99.90
25302;DHT22;13243;50.888;4.724;2023-04-25T09:05:28;9.60;99.90
25302;DHT22;13243;50.888;4.724;2023-04-25T09:10:30;9.80;99.90
25302;DHT22;13243;50.888;4.724;2023-04-25T09:15:50;9.80;99.90
25302;DHT22;13243;50.888;4.724;2023-04-25T09:20:56;10.50;99.90
25302;DHT22;13243;50.888;4.724;2023-04-25T09:26:03;10.80;99.90
25302;DHT22;13243;50.888;4.724;2023-04-25T09:31:05;10.50;99.90
25302;DHT22;13243;50.888;4.724;2023-04-25T09:36:08;10.30;99.90
25302;DHT22;13243;50.888;4.724;2023-04-25T09:41:12;10.20;99.90
25302;DHT22;13243;50.888;4.724;2023-04-25T09:46:14;9.80;99.90
25302;DHT22;13243;50.888;4.724;2023-04-25T09:51:17;9.60;99.90
25302;DHT22;13243;50.888;4.724;2023-04-25T09:56:19;9.70;99.90
25302;DHT22;13243;50.888;4.724;2023-04-25T10:01:23;9.70;99.90
25302;DHT22;13243;50.888;4.724;2023-04-25T10:06:27;9.60;99.90
25302;DHT22;13243;50.888;4.724;2023-04-25T10:11:30;9.80;99.90
25302;DHT22;13243;50.888;4.724;2023-04-25T10:16:33;10.40;99.90
25302;DHT22;13243;50.888;4.724;2023-04-25T10:21:40;10.90;99.90
25302;DHT22;13243;50.888;4.724;2023-04-25T10:26:47;11.50;99.90
25302;DHT22;13243;50.888;4.724;2023-04-25T10:31:49;11.80;99.90
25302;DHT22;13243;50.888;4.724;2023-04-25T10:36:52;11.00;99.90
25302;DHT22;13243;50.888;4.724;2023-04-25T10:41:57;11.00;99.90
25302;DHT22;13243;50.888;4.724;2023-04-25T10:47:01;10.80;99.90
25302;DHT22;13243;50.888;4.724;2023-04-25T10:52:25;10.80;99.90
25302;DHT22;13243;50.888;4.724;2023-04-25T10:57:41;11.50;99.90
25302;DHT22;13243;50.888;4.724;2023-04-25T11:02:45;12.50;99.90
25302;DHT22;13243;50.888;4.724;2023-04-25T11:07:54;12.90;99.90
25302;DHT22;13243;50.888;4.724;2023-04-25T11:13:01;12.20;99.90
25302;DHT22;13243;50.888;4.724;2023-04-25T11:18:03;11.90;99.90
25302;DHT22;13243;50.888;4.724;2023-04-25T11:23:05;11.40;99.90
25302;DHT22;13243;50.888;4.724;2023-04-25T11:28:07;11.40;99.90
25302;DHT22;13243;50.888;4.724;2023-04-25T11:33:09;11.40;99.90
25302;DHT22;13243;50.888;4.724;2023-04-25T11:38:11;11.50;99.90
25302;DHT22;13243;50.888;4.724;2023-04-25T11:43:13;11.40;99.90
25302;DHT22;13243;50.888;4.724;2023-04-25T11:48:15;11.70;99.90
25302;DHT22;13243;50.888;4.724;2023-04-25T11:53:18;12.10;99.90
25302;DHT22;13243;50.888;4.724;2023-04-25T11:58:20;11.90;99.90
25302;DHT22;13243;50.888;4.724;2023-04-25T12:03:22;12.50;99.90
25302;DHT22;13243;50.888;4.724;2023-04-25T12:08:28;12.80;99.90
25302;DHT22;13243;50.888;4.724;2023-04-25T12:13:31;11.90;99.90
25302;DHT22;13243;50.888;4.724;2023-04-25T12:18:35;11.60;99.90
25302;DHT22;13243;50.888;4.724;2023-04-25T12:23:38;11.60;99.90
25302;DHT22;13243;50.888;4.724;2023-04-25T12:28:45;12.30;99.90
25302;DHT22;13243;50.888;4.724;2023-04-25T12:33:48;12.20;99.90
25302;DHT22;13243;50.888;4.724;2023-04-25T12:38:50;12.30;99.90
25302;DHT22;13243;50.888;4.724;2023-04-25T12:43:53;13.40;99.90
25302;DHT22;13243;50.888;4.724;2023-04-25T12:48:55;12.90;99.90
25302;DHT22;13243;50.888;4.724;2023-04-25T12:54:04;12.90;99.90
25302;DHT22;13243;50.888;4.724;2023-04-25T12:59:06;13.90;99.90
25302;DHT22;13243;50.888;4.724;2023-04-25T13:04:08;14.80;99.90
25302;DHT22;13243;50.888;4.724;2023-04-25T13:09:10;14.30;99.90
25302;DHT22;13243;50.888;4.724;2023-04-25T13:14:14;13.10;99.90
25302;DHT22;13243;50.888;4.724;2023-04-25T13:19:16;12.80;99.90
25302;DHT22;13243;50.888;4.724;2023-04-25T13:24:18;12.20;99.90
25302;DHT22;13243;50.888;4.724;2023-04-25T13:29:20;12.20;99.90
25302;DHT22;13243;50.888;4.724;2023-04-25T13:34:22;14.10;99.90
25302;DHT22;13243;50.888;4.724;2023-04-25T13:39:24;14.60;99.90
25302;DHT22;13243;50.888;4.724;2023-04-25T13:44:26;16.00;99.90
25302;DHT22;13243;50.888;4.724;2023-04-25T13:49:28;15.30;99.90
25302;DHT22;13243;50.888;4.724;2023-04-25T13:54:30;15.10;99.90
25302;DHT22;13243;50.888;4.724;2023-04-25T13:59:31;14.50;99.90
25302;DHT22;13243;50.888;4.724;2023-04-25T14:04:33;15.10;99.90
25302;DHT22;13243;50.888;4.724;2023-04-25T14:09:35;16.30;99.90
25302;DHT22;13243;50.888;4.724;2023-04-25T14:14:37;15.40;99.90
25302;DHT22;13243;50.888;4.724;2023-04-25T14:19:39;14.30;99.90
25302;DHT22;13243;50.888;4.724;2023-04-25T14:24:44;14.90;99.90
25302;DHT22;13243;50.888;4.724;2023-04-25T14:29:47;16.10;99.90
25302;DHT22;13243;50.888;4.724;2023-04-25T14:34:49;16.80;99.90
25302;DHT22;13243;50.888;4.724;2023-04-25T14:39:51;16.00;99.90
25302;DHT22;13243;50.888;4.724;2023-04-25T14:44:52;15.10;99.90
25302;DHT22;13243;50.888;4.724;2023-04-25T14:49:54;14.40;99.90
25302;DHT22;13243;50.888;4.724;2023-04-25T14:54:56;13.80;99.90
25302;DHT22;13243;50.888;4.724;2023-04-25T14:59:58;15.40;99.90
25302;DHT22;13243;50.888;4.724;2023-04-25T15:05:00;16.60;99.90
25302;DHT22;13243;50.888;4.724;2023-04-25T15:10:02;15.30;99.90
25302;DHT22;13243;50.888;4.724;2023-04-25T15:15:05;14.50;99.90
25302;DHT22;13243;50.888;4.724;2023-04-25T15:20:09;14.00;99.90
25302;DHT22;13243;50.888;4.724;2023-04-25T15:25:11;14.00;99.90
25302;DHT22;13243;50.888;4.724;2023-04-25T15:30:14;13.30;99.90
25302;DHT22;13243;50.888;4.724;2023-04-25T15:35:16;13.60;99.90
25302;DHT22;13243;50.888;4.724;2023-04-25T15:40:18;13.20;99.90
25302;DHT22;13243;50.888;4.724;2023-04-25T15:45:22;12.90;99.90
25302;DHT22;13243;50.888;4.724;2023-04-25T15:50:26;13.00;99.90
25302;DHT22;13243;50.888;4.724;2023-04-25T15:55:28;12.70;99.90
25302;DHT22;13243;50.888;4.724;2023-04-25T16:00:30;13.10;99.90
25302;DHT22;13243;50.888;4.724;2023-04-25T16:05:32;13.10;99.90
25302;DHT22;13243;50.888;4.724;2023-04-25T16:10:34;12.80;99.90
25302;DHT22;13243;50.888;4.724;2023-04-25T16:15:36;12.90;99.90
25302;DHT22;13243;50.888;4.724;2023-04-25T16:20:38;12.60;99.90
25302;DHT22;13243;50.888;4.724;2023-04-25T16:25:40;12.50;99.90
25302;DHT22;13243;50.888;4.724;2023-04-25T16:30:43;12.60;99.90
25302;DHT22;13243;50.888;4.724;2023-04-25T16:35:45;12.60;99.90
25302;DHT22;13243;50.888;4.724;2023-04-25T16:40:47;12.70;99.90
25302;DHT22;13243;50.888;4.724;2023-04-25T16:45:49;12.60;99.90
25302;DHT22;13243;50.888;4.724;2023-04-25T16:50:52;12.70;99.90
25302;DHT22;13243;50.888;4.724;2023-04-25T16:55:54;14.10;99.90
25302;DHT22;13243;50.888;4.724;2023-04-25T17:00:55;15.00;99.90
25302;DHT22;13243;50.888;4.724;2023-04-25T17:05:58;15.20;99.90
25302;DHT22;13243;50.888;4.724;2023-04-25T17:11:01;16.10;99.90
25302;DHT22;13243;50.888;4.724;2023-04-25T17:16:04;15.60;99.90
25302;DHT22;13243;50.888;4.724;2023-04-25T17:21:06;15.60;99.90
25302;DHT22;13243;50.888;4.724;2023-04-25T17:26:13;15.70;99.90
25302;DHT22;13243;50.888;4.724;2023-04-25T17:31:15;15.40;99.90
25302;DHT22;13243;50.888;4.724;2023-04-25T17:36:18;14.60;99.90
25302;DHT22;13243;50.888;4.724;2023-04-25T17:41:20;13.60;99.90
25302;DHT22;13243;50.888;4.724;2023-04-25T17:46:21;12.80;99.90
25302;DHT22;13243;50.888;4.724;2023-04-25T17:51:23;12.80;99.90
25302;DHT22;13243;50.888;4.724;2023-04-25T17:56:25;12.80;99.90
25302;DHT22;13243;50.888;4.724;2023-04-25T18:01:28;12.50;99.90
25302;DHT22;13243;50.888;4.724;2023-04-25T18:06:31;12.20;99.90
25302;DHT22;13243;50.888;4.724;2023-04-25T18:11:33;12.00;99.90
25302;DHT22;13243;50.888;4.724;2023-04-25T18:16:35;11.90;99.90
25302;DHT22;13243;50.888;4.724;2023-04-25T18:21:38;11.70;99.90
25302;DHT22;13243;50.888;4.724;2023-04-25T18:26:43;11.70;99.90
25302;DHT22;13243;50.888;4.724;2023-04-25T18:31:46;11.50;99.90
25302;DHT22;13243;50.888;4.724;2023-04-25T18:36:50;11.30;99.90
25302;DHT22;13243;50.888;4.724;2023-04-25T18:41:53;11.10;99.90
25302;DHT22;13243;50.888;4.724;2023-04-25T18:47:08;11.10;99.90
25302;DHT22;13243;50.888;4.724;2023-04-25T18:52:10;10.90;99.90
25302;DHT22;13243;50.888;4.724;2023-04-25T18:57:15;10.70;99.90
25302;DHT22;13243;50.888;4.724;2023-04-25T19:02:18;10.60;99.90
25302;DHT22;13243;50.888;4.724;2023-04-25T19:07:20;10.30;99.90
25302;DHT22;13243;50.888;4.724;2023-04-25T19:12:23;10.10;99.90
25302;DHT22;13243;50.888;4.724;2023-04-25T19:17:26;10.00;99.90
25302;DHT22;13243;50.888;4.724;2023-04-25T19:22:31;10.10;99.90
25302;DHT22;13243;50.888;4.724;2023-04-25T19:27:33;10.00;99.90
25302;DHT22;13243;50.888;4.724;2023-04-25T19:32:35;10.00;99.90
25302;DHT22;13243;50.888;4.724;2023-04-25T19:37:37;9.90;99.90
25302;DHT22;13243;50.888;4.724;2023-04-25T19:42:42;9.80;99.90
25302;DHT22;13243;50.888;4.724;2023-04-25T19:47:44;9.40;99.90
25302;DHT22;13243;50.888;4.724;2023-04-25T19:52:46;9.40;99.90
25302;DHT22;13243;50.888;4.724;2023-04-25T19:57:48;9.20;99.90
25302;DHT22;13243;50.888;4.724;2023-04-25T20:02:50;8.90;99.90
25302;DHT22;13243;50.888;4.724;2023-04-25T20:07:52;8.70;99.90
25302;DHT22;13243;50.888;4.724;2023-04-25T20:12:54;9.00;99.90
25302;DHT22;13243;50.888;4.724;2023-04-25T20:17:56;8.60;99.90
25302;DHT22;13243;50.888;4.724;2023-04-25T20:22:58;8.30;99.90
25302;DHT22;13243;50.888;4.724;2023-04-25T20:28:00;8.20;99.90
25302;DHT22;13243;50.888;4.724;2023-04-25T20:33:02;8.20;99.90
25302;DHT22;13243;50.888;4.724;2023-04-25T20:38:04;8.20;99.90
25302;DHT22;13243;50.888;4.724;2023-04-25T20:43:06;7.80;99.90
25302;DHT22;13243;50.888;4.724;2023-04-25T20:48:11;7.80;99.90
25302;DHT22;13243;50.888;4.724;2023-04-25T20:53:13;7.60;99.90
25302;DHT22;13243;50.888;4.724;2023-04-25T20:58:15;7.60;99.90
25302;DHT22;13243;50.888;4.724;2023-04-25T21:03:17;7.50;99.90
25302;DHT22;13243;50.888;4.724;2023-04-25T21:08:19;7.40;99.90
25302;DHT22;13243;50.888;4.724;2023-04-25T21:13:21;7.30;99.90
25302;DHT22;13243;50.888;4.724;2023-04-25T21:18:23;7.30;99.90
25302;DHT22;13243;50.888;4.724;2023-04-25T21:23:25;7.20;99.90
25302;DHT22;13243;50.888;4.724;2023-04-25T21:28:27;7.10;99.90
25302;DHT22;13243;50.888;4.724;2023-04-25T21:33:29;7.00;99.90
25302;DHT22;13243;50.888;4.724;2023-04-25T21:38:31;6.90;99.90
25302;DHT22;13243;50.888;4.724;2023-04-25T21:43:33;6.80;99.90
25302;DHT22;13243;50.888;4.724;2023-04-25T21:48:34;6.70;99.90
25302;DHT22;13243;50.888;4.724;2023-04-25T21:53:36;6.60;99.90
25302;DHT22;13243;50.888;4.724;2023-04-25T21:58:38;6.60;99.90
25302;DHT22;13243;50.888;4.724;2023-04-25T22:03:40;6.70;99.90
25302;DHT22;13243;50.888;4.724;2023-04-25T22:08:42;6.50;99.90
25302;DHT22;13243;50.888;4.724;2023-04-25T22:13:44;6.50;99.90
25302;DHT22;13243;50.888;4.724;2023-04-25T22:18:47;6.40;99.90
25302;DHT22;13243;50.888;4.724;2023-04-25T22:23:50;6.40;99.90
25302;DHT22;13243;50.888;4.724;2023-04-25T22:28:53;6.30;99.90
25302;DHT22;13243;50.888;4.724;2023-04-25T22:33:55;6.10;99.90
25302;DHT22;13243;50.888;4.724;2023-04-25T22:38:57;6.00;99.90
25302;DHT22;13243;50.888;4.724;2023-04-25T22:43:59;6.00;99.90
25302;DHT22;13243;50.888;4.724;2023-04-25T22:49:01;5.90;99.90
25302;DHT22;13243;50.888;4.724;2023-04-25T22:54:03;5.80;99.90
25302;DHT22;13243;50.888;4.724;2023-04-25T22:59:06;5.80;99.90
25302;DHT22;13243;50.888;4.724;2023-04-25T23:04:07;5.70;99.90
25302;DHT22;13243;50.888;4.724;2023-04-25T23:09:10;5.60;99.90
25302;DHT22;13243;50.888;4.724;2023-04-25T23:14:13;5.50;99.90
25302;DHT22;13243;50.888;4.724;2023-04-25T23:19:15;5.40;99.90
25302;DHT22;13243;50.888;4.724;2023-04-25T23:24:17;5.40;99.90
25302;DHT22;13243;50.888;4.724;2023-04-25T23:29:19;5.40;99.90
25302;DHT22;13243;50.888;4.724;2023-04-25T23:34:21;5.40;99.90
25302;DHT22;13243;50.888;4.724;2023-04-25T23:39:23;5.20;99.90
25302;DHT22;13243;50.888;4.724;2023-04-25T23:44:25;5.20;99.90
25302;DHT22;13243;50.888;4.724;2023-04-25T23:49:27;5.20;99.90
25302;DHT22;13243;50.888;4.724;2023-04-25T23:54:28;4.90;99.90
25302;DHT22;13243;50.888;4.724;2023-04-25T23:59:30;5.20;99.90
